Terminal Aerodrome Forecast
Issued by NWS

Home | Current Version | Previous Version | Text Only | Print | Product List | Glossary On
Versions: 1 2 3 4 5 6 7 8 9 10 11 12 13 14 15 16 17
943
FTUS41 KBTV 091135
TAFSLK
TAF
KSLK 091135Z 0912/1012 06007KT 6SM -SN OVC035
      TEMPO 0912/0914 3SM -SN BR OVC030
     FM091400 08005KT 5SM -SN BR OVC030
     FM100000 VRB03KT 3SM -SN BR OVC020=

USA.gov is the U.S. government's official web portal to all federal, state and local government web resources and services.